sensor_id;sensor_type;location;lat;lon;timestamp;P1;durP1;ratioP1;P2;durP2;ratioP2
15968;SDS011;8085;53.472;9.794;2023-07-22T00:01:08;10.75;;;4.97;;
15968;SDS011;8085;53.472;9.794;2023-07-22T00:03:35;9.88;;;5.10;;
15968;SDS011;8085;53.472;9.794;2023-07-22T00:06:03;8.93;;;5.03;;
15968;SDS011;8085;53.472;9.794;2023-07-22T00:08:31;10.23;;;5.10;;
15968;SDS011;8085;53.472;9.794;2023-07-22T00:10:58;10.13;;;5.13;;
15968;SDS011;8085;53.472;9.794;2023-07-22T00:13:27;9.32;;;4.95;;
15968;SDS011;8085;53.472;9.794;2023-07-22T00:15:54;8.93;;;4.93;;
15968;SDS011;8085;53.472;9.794;2023-07-22T00:18:21;9.82;;;5.60;;
15968;SDS011;8085;53.472;9.794;2023-07-22T00:20:49;10.48;;;5.35;;
15968;SDS011;8085;53.472;9.794;2023-07-22T00:23:16;12.00;;;5.55;;
15968;SDS011;8085;53.472;9.794;2023-07-22T00:25:43;10.88;;;5.72;;
15968;SDS011;8085;53.472;9.794;2023-07-22T00:28:10;12.25;;;5.82;;
15968;SDS011;8085;53.472;9.794;2023-07-22T00:30:38;12.35;;;5.72;;
15968;SDS011;8085;53.472;9.794;2023-07-22T00:33:05;13.45;;;6.55;;
15968;SDS011;8085;53.472;9.794;2023-07-22T00:35:32;11.82;;;6.18;;
15968;SDS011;8085;53.472;9.794;2023-07-22T00:37:59;11.02;;;5.93;;
15968;SDS011;8085;53.472;9.794;2023-07-22T00:40:26;15.18;;;5.35;;
15968;SDS011;8085;53.472;9.794;2023-07-22T00:42:55;10.13;;;5.43;;
15968;SDS011;8085;53.472;9.794;2023-07-22T00:45:22;13.45;;;5.40;;
15968;SDS011;8085;53.472;9.794;2023-07-22T00:47:50;8.80;;;5.07;;
15968;SDS011;8085;53.472;9.794;2023-07-22T00:50:18;11.25;;;5.70;;
15968;SDS011;8085;53.472;9.794;2023-07-22T00:52:45;10.10;;;6.03;;
15968;SDS011;8085;53.472;9.794;2023-07-22T00:55:12;12.23;;;5.93;;
15968;SDS011;8085;53.472;9.794;2023-07-22T00:57:39;11.10;;;5.53;;
15968;SDS011;8085;53.472;9.794;2023-07-22T01:00:07;15.05;;;5.32;;
15968;SDS011;8085;53.472;9.794;2023-07-22T01:02:37;13.05;;;5.50;;
15968;SDS011;8085;53.472;9.794;2023-07-22T01:05:05;14.05;;;5.65;;
15968;SDS011;8085;53.472;9.794;2023-07-22T01:10:02;15.88;;;6.05;;
15968;SDS011;8085;53.472;9.794;2023-07-22T01:12:30;10.32;;;5.40;;
15968;SDS011;8085;53.472;9.794;2023-07-22T01:14:58;16.55;;;6.20;;
15968;SDS011;8085;53.472;9.794;2023-07-22T01:17:25;11.32;;;5.57;;
15968;SDS011;8085;53.472;9.794;2023-07-22T01:19:52;11.80;;;5.68;;
15968;SDS011;8085;53.472;9.794;2023-07-22T01:22:21;11.43;;;5.50;;
15968;SDS011;8085;53.472;9.794;2023-07-22T01:24:50;14.57;;;5.47;;
15968;SDS011;8085;53.472;9.794;2023-07-22T01:27:17;9.82;;;5.40;;
15968;SDS011;8085;53.472;9.794;2023-07-22T01:29:44;11.85;;;5.93;;
15968;SDS011;8085;53.472;9.794;2023-07-22T01:32:11;10.18;;;5.32;;
15968;SDS011;8085;53.472;9.794;2023-07-22T01:34:38;11.18;;;5.53;;
15968;SDS011;8085;53.472;9.794;2023-07-22T01:37:07;11.73;;;5.25;;
15968;SDS011;8085;53.472;9.794;2023-07-22T01:39:34;9.27;;;5.28;;
15968;SDS011;8085;53.472;9.794;2023-07-22T01:42:03;11.57;;;5.35;;
15968;SDS011;8085;53.472;9.794;2023-07-22T01:44:30;12.80;;;5.88;;
15968;SDS011;8085;53.472;9.794;2023-07-22T01:46:57;12.60;;;5.72;;
15968;SDS011;8085;53.472;9.794;2023-07-22T01:49:27;11.32;;;5.53;;
15968;SDS011;8085;53.472;9.794;2023-07-22T01:51:54;14.98;;;5.85;;
15968;SDS011;8085;53.472;9.794;2023-07-22T01:54:21;14.85;;;5.90;;
15968;SDS011;8085;53.472;9.794;2023-07-22T01:56:48;11.00;;;5.35;;
15968;SDS011;8085;53.472;9.794;2023-07-22T01:59:16;13.18;;;5.90;;
15968;SDS011;8085;53.472;9.794;2023-07-22T02:01:43;11.85;;;5.15;;
15968;SDS011;8085;53.472;9.794;2023-07-22T02:04:10;11.05;;;5.32;;
15968;SDS011;8085;53.472;9.794;2023-07-22T02:06:37;13.27;;;6.10;;
15968;SDS011;8085;53.472;9.794;2023-07-22T02:09:04;14.25;;;6.05;;
15968;SDS011;8085;53.472;9.794;2023-07-22T02:11:33;11.65;;;5.80;;
15968;SDS011;8085;53.472;9.794;2023-07-22T02:14:01;19.13;;;5.47;;
15968;SDS011;8085;53.472;9.794;2023-07-22T02:16:33;13.52;;;5.57;;
15968;SDS011;8085;53.472;9.794;2023-07-22T02:19:00;15.48;;;5.80;;
15968;SDS011;8085;53.472;9.794;2023-07-22T02:21:27;14.10;;;5.50;;
15968;SDS011;8085;53.472;9.794;2023-07-22T02:23:54;15.23;;;6.05;;
15968;SDS011;8085;53.472;9.794;2023-07-22T02:26:21;11.93;;;5.82;;
15968;SDS011;8085;53.472;9.794;2023-07-22T02:28:48;15.75;;;6.22;;
15968;SDS011;8085;53.472;9.794;2023-07-22T02:31:15;13.38;;;6.13;;
15968;SDS011;8085;53.472;9.794;2023-07-22T02:33:43;12.27;;;5.55;;
15968;SDS011;8085;53.472;9.794;2023-07-22T02:36:10;16.95;;;6.13;;
15968;SDS011;8085;53.472;9.794;2023-07-22T02:38:37;14.07;;;6.38;;
15968;SDS011;8085;53.472;9.794;2023-07-22T02:41:03;14.65;;;6.30;;
15968;SDS011;8085;53.472;9.794;2023-07-22T02:43:32;16.67;;;6.68;;
15968;SDS011;8085;53.472;9.794;2023-07-22T02:46:00;15.45;;;6.43;;
15968;SDS011;8085;53.472;9.794;2023-07-22T02:48:28;11.95;;;5.88;;
15968;SDS011;8085;53.472;9.794;2023-07-22T02:51:01;16.65;;;6.03;;
15968;SDS011;8085;53.472;9.794;2023-07-22T02:53:30;11.70;;;5.75;;
15968;SDS011;8085;53.472;9.794;2023-07-22T02:55:57;13.43;;;5.70;;
15968;SDS011;8085;53.472;9.794;2023-07-22T02:58:24;12.82;;;5.82;;
15968;SDS011;8085;53.472;9.794;2023-07-22T03:00:51;14.68;;;5.70;;
15968;SDS011;8085;53.472;9.794;2023-07-22T03:03:18;14.00;;;5.43;;
15968;SDS011;8085;53.472;9.794;2023-07-22T03:05:45;13.73;;;5.85;;
15968;SDS011;8085;53.472;9.794;2023-07-22T03:08:13;17.90;;;5.88;;
15968;SDS011;8085;53.472;9.794;2023-07-22T03:10:40;15.52;;;5.70;;
15968;SDS011;8085;53.472;9.794;2023-07-22T03:13:12;13.98;;;5.32;;
15968;SDS011;8085;53.472;9.794;2023-07-22T03:15:38;11.85;;;5.50;;
15968;SDS011;8085;53.472;9.794;2023-07-22T03:18:05;14.07;;;5.15;;
15968;SDS011;8085;53.472;9.794;2023-07-22T03:20:35;15.48;;;5.50;;
15968;SDS011;8085;53.472;9.794;2023-07-22T03:23:01;11.82;;;5.65;;
15968;SDS011;8085;53.472;9.794;2023-07-22T03:25:30;10.98;;;5.57;;
15968;SDS011;8085;53.472;9.794;2023-07-22T03:27:58;12.88;;;5.32;;
15968;SDS011;8085;53.472;9.794;2023-07-22T03:30:28;15.50;;;5.95;;
15968;SDS011;8085;53.472;9.794;2023-07-22T03:32:55;13.15;;;5.65;;
15968;SDS011;8085;53.472;9.794;2023-07-22T03:35:22;13.52;;;5.30;;
15968;SDS011;8085;53.472;9.794;2023-07-22T03:37:49;13.80;;;5.13;;
15968;SDS011;8085;53.472;9.794;2023-07-22T03:40:16;15.07;;;5.60;;
15968;SDS011;8085;53.472;9.794;2023-07-22T03:42:46;10.68;;;5.15;;
15968;SDS011;8085;53.472;9.794;2023-07-22T03:45:13;14.18;;;5.60;;
15968;SDS011;8085;53.472;9.794;2023-07-22T03:47:40;15.38;;;5.38;;
15968;SDS011;8085;53.472;9.794;2023-07-22T03:50:08;14.35;;;5.63;;
15968;SDS011;8085;53.472;9.794;2023-07-22T03:52:35;16.83;;;5.88;;
15968;SDS011;8085;53.472;9.794;2023-07-22T03:55:02;12.15;;;5.47;;
15968;SDS011;8085;53.472;9.794;2023-07-22T03:57:30;10.85;;;5.03;;
15968;SDS011;8085;53.472;9.794;2023-07-22T03:59:59;16.55;;;5.43;;
15968;SDS011;8085;53.472;9.794;2023-07-22T04:02:26;10.73;;;5.10;;
15968;SDS011;8085;53.472;9.794;2023-07-22T04:04:54;17.88;;;5.38;;
15968;SDS011;8085;53.472;9.794;2023-07-22T04:07:21;10.40;;;4.47;;
15968;SDS011;8085;53.472;9.794;2023-07-22T04:09:48;11.10;;;4.63;;
15968;SDS011;8085;53.472;9.794;2023-07-22T04:12:15;11.95;;;4.75;;
15968;SDS011;8085;53.472;9.794;2023-07-22T04:14:42;11.95;;;5.05;;
15968;SDS011;8085;53.472;9.794;2023-07-22T04:17:11;11.73;;;5.00;;
15968;SDS011;8085;53.472;9.794;2023-07-22T04:19:40;14.52;;;5.45;;
15968;SDS011;8085;53.472;9.794;2023-07-22T04:22:07;12.85;;;5.35;;
15968;SDS011;8085;53.472;9.794;2023-07-22T04:24:34;16.10;;;5.07;;
15968;SDS011;8085;53.472;9.794;2023-07-22T04:27:01;14.88;;;5.05;;
15968;SDS011;8085;53.472;9.794;2023-07-22T04:29:28;12.32;;;4.78;;
15968;SDS011;8085;53.472;9.794;2023-07-22T04:31:57;13.02;;;5.45;;
15968;SDS011;8085;53.472;9.794;2023-07-22T04:34:27;11.23;;;4.47;;
15968;SDS011;8085;53.472;9.794;2023-07-22T04:36:55;10.02;;;4.50;;
15968;SDS011;8085;53.472;9.794;2023-07-22T04:39:22;15.80;;;5.47;;
15968;SDS011;8085;53.472;9.794;2023-07-22T04:41:49;12.68;;;4.88;;
15968;SDS011;8085;53.472;9.794;2023-07-22T04:44:16;17.25;;;4.88;;
15968;SDS011;8085;53.472;9.794;2023-07-22T04:46:44;9.85;;;4.28;;
15968;SDS011;8085;53.472;9.794;2023-07-22T04:49:11;11.38;;;4.82;;
15968;SDS011;8085;53.472;9.794;2023-07-22T04:51:40;13.68;;;5.10;;
15968;SDS011;8085;53.472;9.794;2023-07-22T04:54:07;12.63;;;4.78;;
15968;SDS011;8085;53.472;9.794;2023-07-22T04:56:34;12.18;;;4.55;;
15968;SDS011;8085;53.472;9.794;2023-07-22T04:59:00;10.52;;;4.60;;
15968;SDS011;8085;53.472;9.794;2023-07-22T05:01:28;13.30;;;4.70;;
15968;SDS011;8085;53.472;9.794;2023-07-22T05:03:55;12.85;;;4.97;;
15968;SDS011;8085;53.472;9.794;2023-07-22T05:06:23;10.25;;;4.35;;
15968;SDS011;8085;53.472;9.794;2023-07-22T05:08:51;8.63;;;4.00;;
15968;SDS011;8085;53.472;9.794;2023-07-22T05:11:18;9.27;;;4.60;;
15968;SDS011;8085;53.472;9.794;2023-07-22T05:13:45;12.40;;;4.35;;
15968;SDS011;8085;53.472;9.794;2023-07-22T05:16:12;9.18;;;4.40;;
15968;SDS011;8085;53.472;9.794;2023-07-22T05:18:38;12.88;;;4.85;;
15968;SDS011;8085;53.472;9.794;2023-07-22T05:21:05;11.70;;;4.50;;
15968;SDS011;8085;53.472;9.794;2023-07-22T05:23:32;11.43;;;4.47;;
15968;SDS011;8085;53.472;9.794;2023-07-22T05:26:01;11.07;;;4.80;;
15968;SDS011;8085;53.472;9.794;2023-07-22T05:28:27;13.18;;;4.80;;
15968;SDS011;8085;53.472;9.794;2023-07-22T05:30:55;9.65;;;4.18;;
15968;SDS011;8085;53.472;9.794;2023-07-22T05:33:22;11.43;;;4.72;;
15968;SDS011;8085;53.472;9.794;2023-07-22T05:35:49;10.52;;;4.70;;
15968;SDS011;8085;53.472;9.794;2023-07-22T05:38:16;13.00;;;4.75;;
15968;SDS011;8085;53.472;9.794;2023-07-22T05:40:42;12.07;;;4.60;;
15968;SDS011;8085;53.472;9.794;2023-07-22T05:43:11;11.90;;;4.93;;
15968;SDS011;8085;53.472;9.794;2023-07-22T05:45:37;10.20;;;4.70;;
15968;SDS011;8085;53.472;9.794;2023-07-22T05:48:05;10.18;;;4.65;;
15968;SDS011;8085;53.472;9.794;2023-07-22T05:50:32;12.25;;;4.40;;
15968;SDS011;8085;53.472;9.794;2023-07-22T05:52:59;11.52;;;4.82;;
15968;SDS011;8085;53.472;9.794;2023-07-22T05:55:26;11.30;;;4.45;;
15968;SDS011;8085;53.472;9.794;2023-07-22T05:57:53;10.90;;;4.50;;
15968;SDS011;8085;53.472;9.794;2023-07-22T06:00:21;8.73;;;4.15;;
15968;SDS011;8085;53.472;9.794;2023-07-22T06:02:48;11.30;;;4.40;;
15968;SDS011;8085;53.472;9.794;2023-07-22T06:05:15;9.43;;;4.07;;
15968;SDS011;8085;53.472;9.794;2023-07-22T06:07:42;10.05;;;3.85;;
15968;SDS011;8085;53.472;9.794;2023-07-22T06:10:14;10.10;;;4.30;;
15968;SDS011;8085;53.472;9.794;2023-07-22T06:12:41;12.80;;;4.07;;
15968;SDS011;8085;53.472;9.794;2023-07-22T06:15:08;7.38;;;3.88;;
15968;SDS011;8085;53.472;9.794;2023-07-22T06:17:36;10.70;;;4.40;;
15968;SDS011;8085;53.472;9.794;2023-07-22T06:20:04;9.50;;;4.00;;
15968;SDS011;8085;53.472;9.794;2023-07-22T06:22:31;8.10;;;3.45;;
15968;SDS011;8085;53.472;9.794;2023-07-22T06:24:58;9.45;;;3.50;;
15968;SDS011;8085;53.472;9.794;2023-07-22T06:27:25;6.82;;;3.55;;
15968;SDS011;8085;53.472;9.794;2023-07-22T06:29:52;8.50;;;3.85;;
15968;SDS011;8085;53.472;9.794;2023-07-22T06:32:20;13.20;;;4.00;;
15968;SDS011;8085;53.472;9.794;2023-07-22T06:34:48;7.80;;;3.17;;
15968;SDS011;8085;53.472;9.794;2023-07-22T06:37:15;7.82;;;3.53;;
15968;SDS011;8085;53.472;9.794;2023-07-22T06:39:42;8.30;;;3.05;;
15968;SDS011;8085;53.472;9.794;2023-07-22T06:42:09;6.72;;;3.35;;
15968;SDS011;8085;53.472;9.794;2023-07-22T06:44:35;9.05;;;3.63;;
15968;SDS011;8085;53.472;9.794;2023-07-22T06:47:02;6.47;;;3.15;;
15968;SDS011;8085;53.472;9.794;2023-07-22T06:49:29;7.82;;;2.80;;
15968;SDS011;8085;53.472;9.794;2023-07-22T06:51:57;5.97;;;2.72;;
15968;SDS011;8085;53.472;9.794;2023-07-22T06:54:24;7.97;;;3.35;;
15968;SDS011;8085;53.472;9.794;2023-07-22T06:56:51;9.25;;;2.70;;
15968;SDS011;8085;53.472;9.794;2023-07-22T06:59:18;4.40;;;2.13;;
15968;SDS011;8085;53.472;9.794;2023-07-22T07:01:45;5.97;;;2.33;;
15968;SDS011;8085;53.472;9.794;2023-07-22T07:04:12;4.85;;;2.90;;
15968;SDS011;8085;53.472;9.794;2023-07-22T07:06:38;3.15;;;1.80;;
15968;SDS011;8085;53.472;9.794;2023-07-22T07:09:07;5.55;;;2.05;;
15968;SDS011;8085;53.472;9.794;2023-07-22T07:11:33;7.90;;;1.65;;
15968;SDS011;8085;53.472;9.794;2023-07-22T07:14:00;5.80;;;1.92;;
15968;SDS011;8085;53.472;9.794;2023-07-22T07:16:29;6.40;;;1.75;;
15968;SDS011;8085;53.472;9.794;2023-07-22T07:18:57;3.95;;;1.50;;
15968;SDS011;8085;53.472;9.794;2023-07-22T07:21:25;4.82;;;1.70;;
15968;SDS011;8085;53.472;9.794;2023-07-22T07:23:52;4.93;;;1.88;;
15968;SDS011;8085;53.472;9.794;2023-07-22T07:26:23;2.95;;;1.70;;
15968;SDS011;8085;53.472;9.794;2023-07-22T07:28:50;5.38;;;2.30;;
15968;SDS011;8085;53.472;9.794;2023-07-22T07:31:18;3.35;;;1.60;;
15968;SDS011;8085;53.472;9.794;2023-07-22T07:33:45;4.78;;;1.88;;
15968;SDS011;8085;53.472;9.794;2023-07-22T07:36:12;4.28;;;1.77;;
15968;SDS011;8085;53.472;9.794;2023-07-22T07:38:39;3.78;;;2.03;;
15968;SDS011;8085;53.472;9.794;2023-07-22T07:41:07;2.78;;;1.60;;
15968;SDS011;8085;53.472;9.794;2023-07-22T07:43:37;2.30;;;1.50;;
15968;SDS011;8085;53.472;9.794;2023-07-22T07:46:14;7.00;;;1.50;;
15968;SDS011;8085;53.472;9.794;2023-07-22T07:48:43;6.75;;;1.60;;
15968;SDS011;8085;53.472;9.794;2023-07-22T07:51:11;3.55;;;1.40;;
15968;SDS011;8085;53.472;9.794;2023-07-22T07:53:39;4.30;;;1.35;;
15968;SDS011;8085;53.472;9.794;2023-07-22T07:56:06;4.13;;;1.35;;
15968;SDS011;8085;53.472;9.794;2023-07-22T07:58:33;2.78;;;1.17;;
15968;SDS011;8085;53.472;9.794;2023-07-22T08:01:01;3.38;;;0.90;;
15968;SDS011;8085;53.472;9.794;2023-07-22T08:03:28;3.88;;;1.05;;
15968;SDS011;8085;53.472;9.794;2023-07-22T08:05:55;4.13;;;0.90;;
15968;SDS011;8085;53.472;9.794;2023-07-22T08:08:22;1.13;;;0.73;;
15968;SDS011;8085;53.472;9.794;2023-07-22T08:10:56;1.92;;;0.68;;
15968;SDS011;8085;53.472;9.794;2023-07-22T08:13:24;0.90;;;0.70;;
15968;SDS011;8085;53.472;9.794;2023-07-22T08:15:51;2.38;;;1.00;;
15968;SDS011;8085;53.472;9.794;2023-07-22T08:18:20;1.92;;;0.95;;
15968;SDS011;8085;53.472;9.794;2023-07-22T08:20:46;3.30;;;0.90;;
15968;SDS011;8085;53.472;9.794;2023-07-22T08:23:13;1.52;;;0.93;;
15968;SDS011;8085;53.472;9.794;2023-07-22T08:25:40;5.38;;;0.90;;
15968;SDS011;8085;53.472;9.794;2023-07-22T08:28:07;2.42;;;0.85;;
15968;SDS011;8085;53.472;9.794;2023-07-22T08:30:34;0.98;;;0.70;;
15968;SDS011;8085;53.472;9.794;2023-07-22T08:33:01;2.20;;;0.90;;
15968;SDS011;8085;53.472;9.794;2023-07-22T08:35:30;1.73;;;0.93;;
15968;SDS011;8085;53.472;9.794;2023-07-22T08:37:56;1.65;;;0.95;;
15968;SDS011;8085;53.472;9.794;2023-07-22T08:40:23;2.83;;;0.90;;
15968;SDS011;8085;53.472;9.794;2023-07-22T08:42:50;2.03;;;0.82;;
15968;SDS011;8085;53.472;9.794;2023-07-22T08:45:18;1.70;;;0.73;;
15968;SDS011;8085;53.472;9.794;2023-07-22T08:47:46;1.80;;;0.60;;
15968;SDS011;8085;53.472;9.794;2023-07-22T08:50:16;2.17;;;0.93;;
15968;SDS011;8085;53.472;9.794;2023-07-22T08:52:48;2.92;;;0.82;;
15968;SDS011;8085;53.472;9.794;2023-07-22T08:55:15;2.40;;;0.63;;
15968;SDS011;8085;53.472;9.794;2023-07-22T08:57:42;1.92;;;0.88;;
15968;SDS011;8085;53.472;9.794;2023-07-22T09:00:11;1.35;;;0.80;;
15968;SDS011;8085;53.472;9.794;2023-07-22T09:02:39;2.55;;;1.00;;
15968;SDS011;8085;53.472;9.794;2023-07-22T09:05:07;0.93;;;0.50;;
15968;SDS011;8085;53.472;9.794;2023-07-22T09:07:35;2.88;;;0.60;;
15968;SDS011;8085;53.472;9.794;2023-07-22T09:10:05;3.83;;;1.00;;
15968;SDS011;8085;53.472;9.794;2023-07-22T09:12:35;1.80;;;0.60;;
15968;SDS011;8085;53.472;9.794;2023-07-22T09:15:06;3.53;;;0.98;;
15968;SDS011;8085;53.472;9.794;2023-07-22T09:17:35;2.65;;;1.00;;
15968;SDS011;8085;53.472;9.794;2023-07-22T09:20:03;1.35;;;0.88;;
15968;SDS011;8085;53.472;9.794;2023-07-22T09:22:31;1.83;;;0.88;;
15968;SDS011;8085;53.472;9.794;2023-07-22T09:25:13;1.70;;;0.80;;
15968;SDS011;8085;53.472;9.794;2023-07-22T09:27:41;1.70;;;0.80;;
15968;SDS011;8085;53.472;9.794;2023-07-22T09:32:51;4.15;;;1.00;;
15968;SDS011;8085;53.472;9.794;2023-07-22T09:35:20;2.20;;;0.95;;
15968;SDS011;8085;53.472;9.794;2023-07-22T09:37:47;1.30;;;1.05;;
15968;SDS011;8085;53.472;9.794;2023-07-22T09:40:17;2.53;;;1.30;;
15968;SDS011;8085;53.472;9.794;2023-07-22T09:42:45;3.83;;;1.08;;
15968;SDS011;8085;53.472;9.794;2023-07-22T09:45:13;3.17;;;1.00;;
15968;SDS011;8085;53.472;9.794;2023-07-22T09:47:40;2.25;;;1.10;;
15968;SDS011;8085;53.472;9.794;2023-07-22T09:50:10;2.00;;;1.42;;
15968;SDS011;8085;53.472;9.794;2023-07-22T09:52:40;1.60;;;1.15;;
15968;SDS011;8085;53.472;9.794;2023-07-22T09:55:09;2.88;;;1.10;;
15968;SDS011;8085;53.472;9.794;2023-07-22T09:57:38;3.33;;;0.90;;
15968;SDS011;8085;53.472;9.794;2023-07-22T10:00:10;1.75;;;0.93;;
15968;SDS011;8085;53.472;9.794;2023-07-22T10:02:39;1.67;;;0.80;;
15968;SDS011;8085;53.472;9.794;2023-07-22T10:05:08;1.90;;;0.90;;
15968;SDS011;8085;53.472;9.794;2023-07-22T10:07:38;1.98;;;1.00;;
15968;SDS011;8085;53.472;9.794;2023-07-22T10:10:09;2.67;;;0.73;;
15968;SDS011;8085;53.472;9.794;2023-07-22T10:12:39;1.40;;;0.90;;
15968;SDS011;8085;53.472;9.794;2023-07-22T10:15:07;2.30;;;1.02;;
15968;SDS011;8085;53.472;9.794;2023-07-22T10:17:35;1.17;;;0.88;;
15968;SDS011;8085;53.472;9.794;2023-07-22T10:20:02;1.30;;;0.80;;
15968;SDS011;8085;53.472;9.794;2023-07-22T10:22:33;2.28;;;0.80;;
15968;SDS011;8085;53.472;9.794;2023-07-22T10:25:04;1.35;;;0.70;;
15968;SDS011;8085;53.472;9.794;2023-07-22T10:27:33;1.98;;;0.80;;
15968;SDS011;8085;53.472;9.794;2023-07-22T10:30:02;1.50;;;0.90;;
15968;SDS011;8085;53.472;9.794;2023-07-22T10:32:33;2.60;;;0.90;;
15968;SDS011;8085;53.472;9.794;2023-07-22T10:35:02;1.48;;;1.05;;
15968;SDS011;8085;53.472;9.794;2023-07-22T10:37:30;1.65;;;1.02;;
15968;SDS011;8085;53.472;9.794;2023-07-22T10:40:01;1.50;;;0.98;;
15968;SDS011;8085;53.472;9.794;2023-07-22T10:42:46;3.28;;;1.23;;
15968;SDS011;8085;53.472;9.794;2023-07-22T10:45:26;1.92;;;1.17;;
15968;SDS011;8085;53.472;9.794;2023-07-22T10:48:00;2.47;;;1.13;;
15968;SDS011;8085;53.472;9.794;2023-07-22T10:50:38;2.47;;;1.20;;
15968;SDS011;8085;53.472;9.794;2023-07-22T10:53:08;1.40;;;1.17;;
15968;SDS011;8085;53.472;9.794;2023-07-22T10:58:31;2.15;;;1.50;;
15968;SDS011;8085;53.472;9.794;2023-07-22T11:04:02;2.20;;;1.42;;
15968;SDS011;8085;53.472;9.794;2023-07-22T11:09:00;3.97;;;1.50;;
15968;SDS011;8085;53.472;9.794;2023-07-22T11:11:38;3.15;;;1.77;;
15968;SDS011;8085;53.472;9.794;2023-07-22T11:14:13;4.35;;;1.70;;
15968;SDS011;8085;53.472;9.794;2023-07-22T11:16:44;2.33;;;1.70;;
15968;SDS011;8085;53.472;9.794;2023-07-22T11:19:12;2.70;;;1.90;;
15968;SDS011;8085;53.472;9.794;2023-07-22T11:21:39;7.50;;;2.05;;
15968;SDS011;8085;53.472;9.794;2023-07-22T11:24:06;4.70;;;2.50;;
15968;SDS011;8085;53.472;9.794;2023-07-22T11:26:34;4.97;;;2.83;;
15968;SDS011;8085;53.472;9.794;2023-07-22T11:29:01;3.22;;;2.80;;
15968;SDS011;8085;53.472;9.794;2023-07-22T11:31:32;2.47;;;1.98;;
15968;SDS011;8085;53.472;9.794;2023-07-22T11:34:00;5.03;;;2.35;;
15968;SDS011;8085;53.472;9.794;2023-07-22T11:36:27;3.60;;;2.25;;
15968;SDS011;8085;53.472;9.794;2023-07-22T11:38:54;6.70;;;2.70;;
15968;SDS011;8085;53.472;9.794;2023-07-22T11:41:27;4.20;;;2.33;;
15968;SDS011;8085;53.472;9.794;2023-07-22T11:43:56;3.15;;;2.60;;
15968;SDS011;8085;53.472;9.794;2023-07-22T11:46:23;6.90;;;2.63;;
15968;SDS011;8085;53.472;9.794;2023-07-22T11:48:50;4.25;;;2.65;;
15968;SDS011;8085;53.472;9.794;2023-07-22T11:51:20;3.83;;;2.55;;
15968;SDS011;8085;53.472;9.794;2023-07-22T11:53:47;3.95;;;2.30;;
15968;SDS011;8085;53.472;9.794;2023-07-22T11:56:18;2.65;;;2.38;;
15968;SDS011;8085;53.472;9.794;2023-07-22T11:58:50;3.83;;;2.58;;
15968;SDS011;8085;53.472;9.794;2023-07-22T12:03:44;3.95;;;2.28;;
15968;SDS011;8085;53.472;9.794;2023-07-22T12:06:11;5.30;;;2.70;;
15968;SDS011;8085;53.472;9.794;2023-07-22T12:08:44;4.70;;;2.60;;
15968;SDS011;8085;53.472;9.794;2023-07-22T12:11:21;3.90;;;2.30;;
15968;SDS011;8085;53.472;9.794;2023-07-22T12:13:49;4.35;;;2.65;;
15968;SDS011;8085;53.472;9.794;2023-07-22T12:16:30;3.40;;;2.60;;
15968;SDS011;8085;53.472;9.794;2023-07-22T12:18:57;4.82;;;3.08;;
15968;SDS011;8085;53.472;9.794;2023-07-22T12:21:23;5.47;;;3.10;;
15968;SDS011;8085;53.472;9.794;2023-07-22T12:23:52;3.88;;;2.70;;
15968;SDS011;8085;53.472;9.794;2023-07-22T12:26:19;5.03;;;3.00;;
15968;SDS011;8085;53.472;9.794;2023-07-22T12:28:46;5.20;;;2.97;;
15968;SDS011;8085;53.472;9.794;2023-07-22T12:31:13;7.00;;;2.90;;
15968;SDS011;8085;53.472;9.794;2023-07-22T12:33:40;5.00;;;3.08;;
15968;SDS011;8085;53.472;9.794;2023-07-22T12:36:07;5.53;;;3.33;;
15968;SDS011;8085;53.472;9.794;2023-07-22T12:38:34;6.07;;;3.30;;
15968;SDS011;8085;53.472;9.794;2023-07-22T12:41:02;7.20;;;3.55;;
15968;SDS011;8085;53.472;9.794;2023-07-22T12:43:29;4.65;;;3.33;;
15968;SDS011;8085;53.472;9.794;2023-07-22T12:45:57;5.28;;;3.50;;
15968;SDS011;8085;53.472;9.794;2023-07-22T12:48:24;5.85;;;3.33;;
15968;SDS011;8085;53.472;9.794;2023-07-22T12:50:51;5.93;;;3.13;;
15968;SDS011;8085;53.472;9.794;2023-07-22T12:53:18;4.45;;;3.28;;
15968;SDS011;8085;53.472;9.794;2023-07-22T12:55:44;6.93;;;3.70;;
15968;SDS011;8085;53.472;9.794;2023-07-22T12:58:13;5.35;;;3.22;;
15968;SDS011;8085;53.472;9.794;2023-07-22T13:00:40;6.25;;;3.50;;
15968;SDS011;8085;53.472;9.794;2023-07-22T13:03:07;4.55;;;3.28;;
15968;SDS011;8085;53.472;9.794;2023-07-22T13:05:34;6.20;;;3.25;;
15968;SDS011;8085;53.472;9.794;2023-07-22T13:08:01;5.43;;;3.20;;
15968;SDS011;8085;53.472;9.794;2023-07-22T13:10:28;5.43;;;3.80;;
15968;SDS011;8085;53.472;9.794;2023-07-22T13:12:56;6.53;;;3.85;;
15968;SDS011;8085;53.472;9.794;2023-07-22T13:15:24;4.63;;;2.97;;
15968;SDS011;8085;53.472;9.794;2023-07-22T13:17:51;6.05;;;3.55;;
15968;SDS011;8085;53.472;9.794;2023-07-22T13:20:18;4.85;;;3.15;;
15968;SDS011;8085;53.472;9.794;2023-07-22T13:22:45;3.97;;;2.90;;
15968;SDS011;8085;53.472;9.794;2023-07-22T13:25:12;6.47;;;3.42;;
15968;SDS011;8085;53.472;9.794;2023-07-22T13:27:39;7.00;;;3.60;;
15968;SDS011;8085;53.472;9.794;2023-07-22T13:30:06;5.63;;;2.95;;
15968;SDS011;8085;53.472;9.794;2023-07-22T13:32:35;7.88;;;3.70;;
15968;SDS011;8085;53.472;9.794;2023-07-22T13:35:02;5.50;;;2.92;;
15968;SDS011;8085;53.472;9.794;2023-07-22T13:37:29;7.93;;;3.67;;
15968;SDS011;8085;53.472;9.794;2023-07-22T13:39:56;7.13;;;4.03;;
15968;SDS011;8085;53.472;9.794;2023-07-22T13:42:23;4.95;;;3.17;;
15968;SDS011;8085;53.472;9.794;2023-07-22T13:44:50;6.38;;;3.00;;
15968;SDS011;8085;53.472;9.794;2023-07-22T13:47:17;4.97;;;3.05;;
15968;SDS011;8085;53.472;9.794;2023-07-22T13:49:45;4.63;;;2.92;;
15968;SDS011;8085;53.472;9.794;2023-07-22T13:52:12;4.95;;;3.38;;
15968;SDS011;8085;53.472;9.794;2023-07-22T13:54:39;5.22;;;3.42;;
15968;SDS011;8085;53.472;9.794;2023-07-22T13:57:06;5.18;;;3.58;;
15968;SDS011;8085;53.472;9.794;2023-07-22T13:59:33;3.58;;;3.00;;
15968;SDS011;8085;53.472;9.794;2023-07-22T14:02:00;7.72;;;3.90;;
15968;SDS011;8085;53.472;9.794;2023-07-22T14:04:27;4.35;;;3.15;;
15968;SDS011;8085;53.472;9.794;2023-07-22T14:06:55;6.82;;;3.22;;
15968;SDS011;8085;53.472;9.794;2023-07-22T14:09:22;4.43;;;3.00;;
15968;SDS011;8085;53.472;9.794;2023-07-22T14:11:48;5.30;;;3.47;;
15968;SDS011;8085;53.472;9.794;2023-07-22T14:14:15;3.97;;;2.85;;
15968;SDS011;8085;53.472;9.794;2023-07-22T14:16:42;4.63;;;2.80;;
15968;SDS011;8085;53.472;9.794;2023-07-22T14:19:09;5.35;;;3.15;;
15968;SDS011;8085;53.472;9.794;2023-07-22T14:21:36;5.85;;;3.08;;
15968;SDS011;8085;53.472;9.794;2023-07-22T14:24:04;6.80;;;2.97;;
15968;SDS011;8085;53.472;9.794;2023-07-22T14:26:31;4.47;;;2.88;;
15968;SDS011;8085;53.472;9.794;2023-07-22T14:28:58;5.57;;;3.30;;
15968;SDS011;8085;53.472;9.794;2023-07-22T14:31:25;5.15;;;3.35;;
15968;SDS011;8085;53.472;9.794;2023-07-22T14:33:52;6.40;;;3.13;;
15968;SDS011;8085;53.472;9.794;2023-07-22T14:36:18;4.72;;;3.22;;
15968;SDS011;8085;53.472;9.794;2023-07-22T14:38:45;5.55;;;3.03;;
15968;SDS011;8085;53.472;9.794;2023-07-22T14:41:14;7.45;;;2.80;;
15968;SDS011;8085;53.472;9.794;2023-07-22T14:43:40;4.80;;;2.97;;
15968;SDS011;8085;53.472;9.794;2023-07-22T14:46:07;5.53;;;3.22;;
15968;SDS011;8085;53.472;9.794;2023-07-22T14:48:34;4.57;;;3.33;;
15968;SDS011;8085;53.472;9.794;2023-07-22T14:51:01;5.57;;;3.53;;
15968;SDS011;8085;53.472;9.794;2023-07-22T14:53:28;5.00;;;3.10;;
15968;SDS011;8085;53.472;9.794;2023-07-22T14:55:55;4.40;;;3.00;;
15968;SDS011;8085;53.472;9.794;2023-07-22T14:58:23;4.95;;;3.05;;
15968;SDS011;8085;53.472;9.794;2023-07-22T15:00:50;4.68;;;2.67;;
15968;SDS011;8085;53.472;9.794;2023-07-22T15:03:17;3.17;;;2.40;;
15968;SDS011;8085;53.472;9.794;2023-07-22T15:05:43;3.25;;;2.28;;
15968;SDS011;8085;53.472;9.794;2023-07-22T15:08:10;4.55;;;2.42;;
15968;SDS011;8085;53.472;9.794;2023-07-22T15:10:37;3.13;;;2.10;;
15968;SDS011;8085;53.472;9.794;2023-07-22T15:13:04;3.35;;;1.80;;
15968;SDS011;8085;53.472;9.794;2023-07-22T15:15:32;3.05;;;1.98;;